createdAt,value
2019-06-07T00:00:51.924Z,13.12
2019-06-07T00:03:28.949Z,13.11
2019-06-07T00:05:52.866Z,12.89
2019-06-07T00:08:28.657Z,12.84
2019-06-07T00:10:53.829Z,12.83
2019-06-07T00:13:23.524Z,12.70
2019-06-07T00:15:53.435Z,12.70
2019-06-07T00:18:25.865Z,12.79
2019-06-07T00:20:54.795Z,12.79
2019-06-07T00:23:24.424Z,12.85
2019-06-07T00:25:54.130Z,12.76
2019-06-07T00:28:24.057Z,12.85
2019-06-07T00:30:53.658Z,12.90
2019-06-07T00:33:25.183Z,12.91
2019-06-07T00:35:55.175Z,12.84
2019-06-07T00:38:24.914Z,12.78
2019-06-07T00:40:54.572Z,12.81
2019-06-07T00:43:28.194Z,12.84
2019-06-07T00:45:55.983Z,12.86
2019-06-07T00:48:31.957Z,12.90
2019-06-07T00:50:57.736Z,12.92
2019-06-07T00:53:32.235Z,12.85
2019-06-07T00:55:58.889Z,12.87
2019-06-07T00:58:29.515Z,12.87
2019-06-07T01:00:59.291Z,12.75
2019-06-07T01:03:29.464Z,12.70
2019-06-07T01:05:59.191Z,12.71
2019-06-07T01:08:30.274Z,12.71
2019-06-07T01:10:59.955Z,12.72
2019-06-07T01:13:29.512Z,12.58
2019-06-07T01:15:59.165Z,12.56
2019-06-07T01:18:41.036Z,12.53
2019-06-07T01:21:00.020Z,12.42
2019-06-07T01:26:01.354Z,12.57
2019-06-07T01:28:30.992Z,12.58
2019-06-07T01:31:00.566Z,12.59
2019-06-07T01:33:49.805Z,12.53
2019-06-07T01:36:01.491Z,12.51
2019-06-07T01:38:31.139Z,12.51
2019-06-07T01:41:00.712Z,12.51
2019-06-07T01:43:31.093Z,12.37
2019-06-07T01:46:01.399Z,12.43
2019-06-07T01:48:48.477Z,12.48
2019-06-07T01:51:02.338Z,12.47
2019-06-07T01:53:32.018Z,12.42
2019-06-07T01:56:01.756Z,12.41
2019-06-07T01:58:31.325Z,12.38
2019-06-07T02:01:02.730Z,12.31
2019-06-07T02:03:33.508Z,12.20
2019-06-07T02:06:03.503Z,12.09
2019-06-07T02:08:34.323Z,12.09
2019-06-07T02:11:04.044Z,11.97
2019-06-07T02:13:33.595Z,11.97
2019-06-07T02:16:03.296Z,12.08
2019-06-07T02:18:34.836Z,12.01
2019-06-07T02:21:04.112Z,11.95
2019-06-07T02:23:33.904Z,12.07
2019-06-07T02:26:03.753Z,11.97
2019-06-07T02:28:44.754Z,11.99
2019-06-07T02:31:04.603Z,12.03
2019-06-07T02:33:40.035Z,11.98
2019-06-07T02:36:05.605Z,12.00
2019-06-07T02:38:37.511Z,12.09
2019-06-07T02:41:06.800Z,12.11
2019-06-07T02:43:37.254Z,12.00
2019-06-07T02:46:25.356Z,11.90
2019-06-07T02:48:43.126Z,11.86
2019-06-07T02:51:12.706Z,11.89
2019-06-07T02:53:42.332Z,11.73
2019-06-07T02:56:37.725Z,11.69
2019-06-07T02:58:43.235Z,11.59
2019-06-07T03:01:13.112Z,11.55
2019-06-07T03:03:42.902Z,11.55
2019-06-07T03:06:14.513Z,11.54
2019-06-07T03:08:47.274Z,11.55
2019-06-07T03:11:17.258Z,11.55
2019-06-07T03:13:48.347Z,11.50
2019-06-07T03:16:20.187Z,11.54
2019-06-07T03:18:54.234Z,11.62
2019-06-07T03:21:28.131Z,11.71
2019-06-07T03:24:02.604Z,11.67
2019-06-07T03:26:35.749Z,11.71
2019-06-07T03:29:03.820Z,11.73
2019-06-07T03:31:43.385Z,11.80
2019-06-07T03:34:05.000Z,11.76
2019-06-07T03:36:38.711Z,11.71
2019-06-07T03:39:06.886Z,11.68
2019-06-07T03:41:49.979Z,11.76
2019-06-07T03:44:07.879Z,11.74
2019-06-07T03:46:41.163Z,11.73
2019-06-07T03:49:09.057Z,11.77
2019-06-07T03:51:40.592Z,11.85
2019-06-07T03:54:09.907Z,11.85
2019-06-07T03:56:41.032Z,11.89
2019-06-07T03:59:10.897Z,11.77
2019-06-07T04:01:41.247Z,11.66
2019-06-07T04:04:11.161Z,11.68
2019-06-07T04:06:42.389Z,11.78
2019-06-07T04:09:12.072Z,11.58
2019-06-07T04:11:41.702Z,11.64
2019-06-07T04:14:11.520Z,11.69
2019-06-07T04:16:44.583Z,11.66
2019-06-07T04:19:12.630Z,11.69
2019-06-07T04:21:43.120Z,11.73
2019-06-07T04:24:12.737Z,11.65
2019-06-07T04:26:43.760Z,11.77
2019-06-07T04:31:45.678Z,11.68
2019-06-07T04:34:15.349Z,11.62
2019-06-07T04:36:58.752Z,11.53
2019-06-07T04:39:20.792Z,11.57
2019-06-07T04:41:52.310Z,11.62
2019-06-07T04:44:24.063Z,11.66
2019-06-07T04:46:57.039Z,11.66
2019-06-07T04:49:26.830Z,11.67
2019-06-07T04:51:57.904Z,11.65
2019-06-07T04:54:27.537Z,11.61
2019-06-07T04:56:57.315Z,11.65
2019-06-07T05:00:04.193Z,11.53
2019-06-07T05:01:58.609Z,11.64
2019-06-07T05:04:28.936Z,11.68
2019-06-07T05:06:59.572Z,11.63
2019-06-07T05:09:30.149Z,11.70
2019-06-07T05:11:59.753Z,11.69
2019-06-07T05:14:32.538Z,11.71
2019-06-07T05:17:01.571Z,11.83
2019-06-07T05:19:35.174Z,11.95
2019-06-07T05:22:04.917Z,11.93
2019-06-07T05:24:38.485Z,12.03
2019-06-07T05:27:05.955Z,12.07
2019-06-07T05:29:38.373Z,12.10
2019-06-07T05:32:07.298Z,12.25
2019-06-07T05:34:39.199Z,12.26
2019-06-07T05:37:12.049Z,12.23
2019-06-07T05:39:42.586Z,12.27
2019-06-07T05:42:11.145Z,12.28
2019-06-07T05:44:44.069Z,12.27
2019-06-07T05:47:12.137Z,12.44
2019-06-07T05:49:46.223Z,12.50
2019-06-07T05:52:13.104Z,12.62
2019-06-07T05:54:45.363Z,12.62
2019-06-07T05:57:14.012Z,12.73
2019-06-07T05:59:46.827Z,12.80
2019-06-07T06:02:22.512Z,12.79
2019-06-07T06:04:49.139Z,12.77
2019-06-07T06:07:17.597Z,12.89
2019-06-07T06:09:47.695Z,13.08
2019-06-07T06:12:34.184Z,13.09
2019-06-07T06:14:48.975Z,13.08
2019-06-07T06:17:18.752Z,13.17
2019-06-07T06:19:52.532Z,13.25
2019-06-07T06:22:19.592Z,13.22
2019-06-07T06:25:29.733Z,13.41
2019-06-07T06:28:02.748Z,13.49
2019-06-07T06:29:52.507Z,13.54
2019-06-07T06:34:55.639Z,13.65
2019-06-07T06:37:24.701Z,13.73
2019-06-07T06:39:54.315Z,13.80
2019-06-07T06:42:24.135Z,13.89
2019-06-07T06:44:54.295Z,13.90
2019-06-07T06:47:23.986Z,14.05
2019-06-07T06:49:54.366Z,14.11
2019-06-07T06:52:24.303Z,14.16
2019-06-07T06:55:00.564Z,14.19
2019-06-07T06:57:25.203Z,14.24
2019-06-07T06:59:54.777Z,14.31
2019-06-07T07:02:24.391Z,14.49
2019-06-07T07:04:54.275Z,14.55
2019-06-07T07:07:26.085Z,14.52
2019-06-07T07:09:59.241Z,14.56
2019-06-07T07:12:28.077Z,14.62
2019-06-07T07:14:57.682Z,14.66
2019-06-07T07:17:47.857Z,14.77
2019-06-07T07:19:58.536Z,14.79
2019-06-07T07:22:28.110Z,14.83
2019-06-07T07:24:57.702Z,14.97
2019-06-07T07:27:27.287Z,15.04
2019-06-07T07:30:34.998Z,15.10
2019-06-07T07:32:28.198Z,15.09
2019-06-07T07:35:00.542Z,15.15
2019-06-07T07:37:29.349Z,15.28
2019-06-07T07:40:09.487Z,15.41
2019-06-07T07:42:30.196Z,15.54
2019-06-07T07:44:59.771Z,15.71
2019-06-07T07:47:29.341Z,15.92
2019-06-07T07:49:59.278Z,15.94
2019-06-07T07:52:29.130Z,16.02
2019-06-07T07:54:58.679Z,16.16
2019-06-07T07:57:28.973Z,16.14
2019-06-07T08:00:25.690Z,16.24
2019-06-07T08:02:29.875Z,16.31
2019-06-07T08:05:21.405Z,16.35
2019-06-07T08:07:30.781Z,16.42
2019-06-07T08:10:03.890Z,16.49
2019-06-07T08:12:54.751Z,16.52
2019-06-07T08:15:03.973Z,16.56
2019-06-07T08:17:33.756Z,16.71
2019-06-07T08:20:04.264Z,16.76
2019-06-07T08:22:33.848Z,16.89
2019-06-07T08:25:04.868Z,16.88
2019-06-07T08:27:34.554Z,16.94
2019-06-07T08:30:35.095Z,16.93
2019-06-07T08:32:38.348Z,17.02
2019-06-07T08:35:08.774Z,17.13
2019-06-07T08:38:14.839Z,17.20
2019-06-07T08:40:10.737Z,17.42
2019-06-07T08:42:59.712Z,17.48
2019-06-07T08:45:13.573Z,17.47
2019-06-07T08:47:43.474Z,17.51
2019-06-07T08:50:14.800Z,17.61
2019-06-07T08:52:44.448Z,17.70
2019-06-07T08:55:14.619Z,17.81
2019-06-07T08:57:44.301Z,17.88
2019-06-07T09:00:43.041Z,17.95
2019-06-07T09:02:46.187Z,17.95
2019-06-07T09:05:16.206Z,18.09
2019-06-07T09:07:47.533Z,18.13
2019-06-07T09:10:17.867Z,18.27
2019-06-07T09:12:47.659Z,18.37
2019-06-07T09:15:23.134Z,18.54
2019-06-07T09:18:34.715Z,18.60
2019-06-07T09:20:36.428Z,18.50
2019-06-07T09:22:59.120Z,18.68
2019-06-07T09:25:24.777Z,18.84
2019-06-07T09:28:00.674Z,19.00
2019-06-07T09:30:40.307Z,19.11
2019-06-07T09:33:10.577Z,19.22
2019-06-07T09:35:40.913Z,19.21
2019-06-07T09:38:23.665Z,19.35
2019-06-07T09:40:41.930Z,19.36
2019-06-07T09:45:42.895Z,19.44
2019-06-07T09:48:16.556Z,19.55
2019-06-07T09:50:44.773Z,19.66
2019-06-07T09:53:22.483Z,19.80
2019-06-07T09:55:46.218Z,19.92
2019-06-07T09:58:50.434Z,19.95
2019-06-07T10:00:47.555Z,20.11
2019-06-07T10:03:21.814Z,20.16
2019-06-07T10:05:48.719Z,20.18
2019-06-07T10:09:26.295Z,20.34
2019-06-07T10:10:49.651Z,20.45
2019-06-07T10:13:19.246Z,20.53
2019-06-07T10:15:48.805Z,20.61
2019-06-07T10:18:18.451Z,20.54
2019-06-07T10:20:48.033Z,20.61
2019-06-07T10:23:17.615Z,20.72
2019-06-07T10:25:47.549Z,20.76
2019-06-07T10:28:17.153Z,20.91
2019-06-07T10:30:47.683Z,20.87
2019-06-07T10:33:17.323Z,20.89
2019-06-07T10:35:47.589Z,21.13
2019-06-07T10:38:17.255Z,21.13
2019-06-07T10:40:47.623Z,21.45
2019-06-07T10:43:17.227Z,21.63
2019-06-07T10:45:47.654Z,21.60
2019-06-07T10:48:17.221Z,21.74
2019-06-07T10:50:47.675Z,21.74
2019-06-07T10:53:17.235Z,21.74
2019-06-07T10:55:47.640Z,21.90
2019-06-07T10:58:17.221Z,22.10
2019-06-07T11:00:48.535Z,22.15
2019-06-07T11:03:18.096Z,22.17
2019-06-07T11:05:47.832Z,22.21
2019-06-07T11:08:17.422Z,22.28
2019-06-07T11:10:47.599Z,22.41
2019-06-07T11:13:17.199Z,22.49
2019-06-07T11:15:47.632Z,22.64
2019-06-07T11:18:18.899Z,22.73
2019-06-07T11:20:48.618Z,22.90
2019-06-07T11:23:18.621Z,23.15
2019-06-07T11:25:48.180Z,23.24
2019-06-07T11:28:18.706Z,23.14
2019-06-07T11:30:48.879Z,23.00
2019-06-07T11:33:18.866Z,23.16
2019-06-07T11:35:48.741Z,23.38
2019-06-07T11:38:18.798Z,23.54
2019-06-07T11:40:48.355Z,23.56
2019-06-07T11:43:19.069Z,23.69
2019-06-07T11:45:48.706Z,23.76
2019-06-07T11:48:18.293Z,23.64
2019-06-07T11:50:47.855Z,23.85
2019-06-07T11:53:19.809Z,23.81
2019-06-07T11:55:48.810Z,24.04
2019-06-07T11:58:21.610Z,24.83
2019-06-07T12:00:49.655Z,24.83
2019-06-07T12:03:19.288Z,24.94
2019-06-07T12:05:48.862Z,24.74
2019-06-07T12:08:18.769Z,24.89
2019-06-07T12:10:48.877Z,25.04
2019-06-07T12:13:18.999Z,25.22
2019-06-07T12:15:49.230Z,25.09
2019-06-07T12:18:19.675Z,24.83
2019-06-07T12:20:49.428Z,24.66
2019-06-07T12:23:20.143Z,24.65
2019-06-07T12:25:49.893Z,24.97
2019-06-07T12:28:20.910Z,25.19
2019-06-07T12:30:50.538Z,25.13
2019-06-07T12:33:20.115Z,25.35
2019-06-07T12:35:49.684Z,25.38
2019-06-07T12:38:21.475Z,25.52
2019-06-07T12:40:57.743Z,25.62
2019-06-07T12:43:23.573Z,25.76
2019-06-07T12:45:53.324Z,25.79
2019-06-07T12:48:25.936Z,25.92
2019-06-07T12:50:54.356Z,26.09
2019-06-07T12:53:27.648Z,26.15
2019-06-07T12:55:55.248Z,26.20
2019-06-07T12:58:33.677Z,26.17
2019-06-07T13:00:59.498Z,26.10
2019-06-07T13:03:27.591Z,25.52
2019-06-07T13:05:57.161Z,25.19
2019-06-07T13:08:28.209Z,24.83
2019-06-07T13:11:14.066Z,24.70
2019-06-07T13:13:29.285Z,24.63
2019-06-07T13:15:58.844Z,24.70
2019-06-07T13:18:28.690Z,24.41
2019-06-07T13:20:58.349Z,24.24
2019-06-07T13:23:28.972Z,24.36
2019-06-07T13:25:58.695Z,24.79
2019-06-07T13:28:28.971Z,24.76
2019-06-07T13:30:58.627Z,24.96
2019-06-07T13:33:35.341Z,24.99
2019-06-07T13:35:59.468Z,24.95
2019-06-07T13:38:29.353Z,24.70
2019-06-07T13:40:58.979Z,24.53
2019-06-07T13:43:28.618Z,24.99
2019-06-07T13:45:58.271Z,25.56
2019-06-07T13:48:28.068Z,25.72
2019-06-07T13:50:57.710Z,25.83
2019-06-07T13:53:27.271Z,25.78
2019-06-07T13:55:56.853Z,25.42
2019-06-07T13:58:26.595Z,25.48
2019-06-07T14:00:56.463Z,25.92
2019-06-07T14:03:29.278Z,25.89
2019-06-07T14:05:57.291Z,25.68
2019-06-07T14:08:27.287Z,25.96
2019-06-07T14:10:56.976Z,26.07
2019-06-07T14:13:27.986Z,26.36
2019-06-07T14:15:57.697Z,26.10
2019-06-07T14:18:28.732Z,25.99
2019-06-07T14:20:59.071Z,26.37
2019-06-07T14:23:47.363Z,26.55
2019-06-07T14:26:00.154Z,26.35
2019-06-07T14:28:32.232Z,26.20
2019-06-07T14:31:01.428Z,25.83
2019-06-07T14:33:32.510Z,25.90
2019-06-07T14:36:02.398Z,25.83
2019-06-07T14:38:35.442Z,25.53
2019-06-07T14:41:03.402Z,25.49
2019-06-07T14:43:34.116Z,25.34
2019-06-07T14:46:03.998Z,25.39
2019-06-07T14:48:34.590Z,25.16
2019-06-07T14:51:04.229Z,25.05
2019-06-07T14:53:35.071Z,24.75
2019-06-07T14:56:04.943Z,24.65
2019-06-07T14:58:42.538Z,24.53
2019-06-07T15:01:05.932Z,24.34
2019-06-07T15:03:35.564Z,24.12
2019-06-07T15:06:05.222Z,24.11
2019-06-07T15:08:34.977Z,24.09
2019-06-07T15:11:04.742Z,24.11
2019-06-07T15:13:35.743Z,24.05
2019-06-07T15:16:05.494Z,24.00
2019-06-07T15:18:36.102Z,23.96
2019-06-07T15:21:05.876Z,23.49
2019-06-07T15:23:35.429Z,23.01
2019-06-07T15:26:05.165Z,22.48
2019-06-07T15:28:36.753Z,22.01
2019-06-07T15:31:06.030Z,21.44
2019-06-07T15:33:36.507Z,21.17
2019-06-07T15:36:06.305Z,20.92
2019-06-07T15:38:37.173Z,20.85
2019-06-07T15:41:06.947Z,20.83
2019-06-07T15:43:37.465Z,20.79
2019-06-07T15:46:07.201Z,20.87
2019-06-07T15:48:38.175Z,20.97
2019-06-07T15:51:07.968Z,21.08
2019-06-07T15:53:42.636Z,21.15
2019-06-07T15:56:08.810Z,21.19
2019-06-07T15:58:39.383Z,21.27
2019-06-07T16:01:09.107Z,21.39
2019-06-07T16:03:39.859Z,21.14
2019-06-07T16:06:09.588Z,20.68
2019-06-07T16:08:40.382Z,20.39
2019-06-07T16:11:10.089Z,20.16
2019-06-07T16:13:40.813Z,20.08
2019-06-07T16:16:10.704Z,19.74
2019-06-07T16:18:41.573Z,19.66
2019-06-07T16:21:11.537Z,19.54
2019-06-07T16:23:42.108Z,19.61
2019-06-07T16:26:11.882Z,19.67
2019-06-07T16:28:42.548Z,19.65
2019-06-07T16:31:12.220Z,20.02
2019-06-07T16:33:43.051Z,19.77
2019-06-07T16:36:12.910Z,19.78
2019-06-07T16:38:42.509Z,19.46
2019-06-07T16:41:12.132Z,18.89
2019-06-07T16:43:42.654Z,18.69
2019-06-07T16:46:12.363Z,18.64
2019-06-07T16:48:42.943Z,19.08
2019-06-07T16:51:12.570Z,18.78
2019-06-07T16:53:42.427Z,18.74
2019-06-07T16:56:12.141Z,18.62
2019-06-07T16:58:42.336Z,18.49
2019-06-07T17:01:12.006Z,18.43
2019-06-07T17:03:41.616Z,18.29
2019-06-07T17:06:11.300Z,18.23
2019-06-07T17:08:42.145Z,18.17
2019-06-07T17:11:11.805Z,18.05
2019-06-07T17:13:42.346Z,18.09
2019-06-07T17:16:11.995Z,17.86
2019-06-07T17:18:42.948Z,17.81
2019-06-07T17:21:12.623Z,17.59
2019-06-07T17:23:43.684Z,17.48
2019-06-07T17:26:13.516Z,17.35
2019-06-07T17:28:43.656Z,17.39
2019-06-07T17:31:13.359Z,17.39
2019-06-07T17:33:43.942Z,17.49
2019-06-07T17:36:13.729Z,17.53
2019-06-07T17:38:44.451Z,17.56
2019-06-07T17:41:14.048Z,17.42
2019-06-07T17:43:52.091Z,17.32
2019-06-07T17:46:15.056Z,17.34
2019-06-07T17:48:45.577Z,17.38
2019-06-07T17:51:15.276Z,17.47
2019-06-07T17:53:45.855Z,17.44
2019-06-07T17:56:15.417Z,17.51
2019-06-07T17:58:46.053Z,17.41
2019-06-07T18:01:15.951Z,17.25
2019-06-07T18:03:46.719Z,17.30
2019-06-07T18:06:17.740Z,17.28
2019-06-07T18:08:49.528Z,17.36
2019-06-07T18:11:19.105Z,17.37
2019-06-07T18:14:05.099Z,17.40
2019-06-07T18:16:20.029Z,17.42
2019-06-07T18:18:50.680Z,17.52
2019-06-07T18:21:20.223Z,17.58
2019-06-07T18:23:50.319Z,17.59
2019-06-07T18:26:19.933Z,17.67
2019-06-07T18:28:50.589Z,17.68
2019-06-07T18:31:20.232Z,17.82
2019-06-07T18:33:50.926Z,17.92
2019-06-07T18:36:20.494Z,18.01
2019-06-07T18:38:50.899Z,18.05
2019-06-07T18:41:20.509Z,18.03
2019-06-07T18:43:51.137Z,17.86
2019-06-07T18:46:20.773Z,17.86
2019-06-07T18:48:50.609Z,17.89
2019-06-07T18:51:20.242Z,17.97
2019-06-07T18:53:49.846Z,17.99
2019-06-07T18:56:19.403Z,17.85
2019-06-07T18:58:49.170Z,17.73
2019-06-07T19:01:18.996Z,17.61
2019-06-07T19:03:50.190Z,17.50
2019-06-07T19:06:19.807Z,17.46
2019-06-07T19:08:53.122Z,17.43
2019-06-07T19:11:20.696Z,17.49
2019-06-07T19:13:50.944Z,17.36
2019-06-07T19:16:20.778Z,17.28
2019-06-07T19:18:51.711Z,17.17
2019-06-07T19:21:21.313Z,17.05
2019-06-07T19:23:51.759Z,17.04
2019-06-07T19:26:21.414Z,17.18
2019-06-07T19:28:51.077Z,17.15
2019-06-07T19:31:20.661Z,17.03
2019-06-07T19:33:51.037Z,16.91
2019-06-07T19:36:20.585Z,16.82
2019-06-07T19:38:51.703Z,16.82
2019-06-07T19:41:21.334Z,16.92
2019-06-07T19:43:52.069Z,16.80
2019-06-07T19:46:21.739Z,16.64
2019-06-07T19:48:52.494Z,16.68
2019-06-07T19:51:22.232Z,16.67
2019-06-07T19:53:52.919Z,16.73
2019-06-07T19:56:22.612Z,16.65
2019-06-07T19:58:53.399Z,16.63
2019-06-07T20:01:23.053Z,16.56
2019-06-07T20:03:53.811Z,16.60
2019-06-07T20:06:23.546Z,16.52
2019-06-07T20:08:54.296Z,16.46
2019-06-07T20:11:23.959Z,16.49
2019-06-07T20:13:54.477Z,16.51
2019-06-07T20:16:24.113Z,16.54
2019-06-07T20:18:53.692Z,16.49
2019-06-07T20:21:23.277Z,16.53
2019-06-07T20:23:52.925Z,16.49
2019-06-07T20:26:22.490Z,16.44
2019-06-07T20:28:52.090Z,16.43
2019-06-07T20:31:21.656Z,16.35
2019-06-07T20:33:51.247Z,16.34
2019-06-07T20:36:20.820Z,16.37
2019-06-07T20:38:50.462Z,16.38
2019-06-07T20:41:20.062Z,16.41
2019-06-07T20:43:49.652Z,16.40
2019-06-07T20:46:19.231Z,16.29
2019-06-07T20:48:48.804Z,16.31
2019-06-07T20:51:18.429Z,16.31
2019-06-07T20:53:48.458Z,16.37
2019-06-07T20:56:18.030Z,16.34
2019-06-07T20:58:48.416Z,16.33
2019-06-07T21:01:18.022Z,16.30
2019-06-07T21:03:48.434Z,16.19
2019-06-07T21:06:18.011Z,16.19
2019-06-07T21:08:48.364Z,16.23
2019-06-07T21:11:17.924Z,16.23
2019-06-07T21:13:48.439Z,16.20
2019-06-07T21:16:18.038Z,16.20
2019-06-07T21:18:48.482Z,16.17
2019-06-07T21:21:18.068Z,16.05
2019-06-07T21:23:48.468Z,16.11
2019-06-07T21:26:18.028Z,16.15
2019-06-07T21:28:48.382Z,16.09
2019-06-07T21:31:17.953Z,16.06
2019-06-07T21:33:48.494Z,16.05
2019-06-07T21:36:18.129Z,16.09
2019-06-07T21:38:48.464Z,16.09
2019-06-07T21:41:18.034Z,16.10
2019-06-07T21:43:48.472Z,16.07
2019-06-07T21:46:20.423Z,16.07
2019-06-07T21:48:49.327Z,16.06
2019-06-07T21:51:18.925Z,16.10
2019-06-07T21:53:48.503Z,16.10
2019-06-07T21:56:18.078Z,16.08
2019-06-07T21:58:48.501Z,16.07
2019-06-07T22:01:20.205Z,16.09
2019-06-07T22:03:49.907Z,16.04
2019-06-07T22:06:19.507Z,16.04
2019-06-07T22:08:49.101Z,16.13
2019-06-07T22:11:18.729Z,16.09
2019-06-07T22:13:48.513Z,16.08
2019-06-07T22:16:28.504Z,16.17
2019-06-07T22:18:49.664Z,16.19
2019-06-07T22:21:19.244Z,16.14
2019-06-07T22:23:48.833Z,16.11
2019-06-07T22:26:18.472Z,16.12
2019-06-07T22:28:48.496Z,16.09
2019-06-07T22:31:19.277Z,16.13
2019-06-07T22:33:49.021Z,16.17
2019-06-07T22:36:19.465Z,16.17
2019-06-07T22:38:49.253Z,16.17
2019-06-07T22:41:18.813Z,16.18
2019-06-07T22:43:48.648Z,16.17
2019-06-07T22:46:19.278Z,16.18
2019-06-07T22:48:49.039Z,16.26
2019-06-07T22:51:18.703Z,16.26
2019-06-07T22:53:48.498Z,16.25
2019-06-07T22:56:19.714Z,16.25
2019-06-07T22:58:49.281Z,16.24
2019-06-07T23:01:20.197Z,16.21
2019-06-07T23:03:49.937Z,16.28
2019-06-07T23:06:19.619Z,16.30
2019-06-07T23:08:49.224Z,16.35
2019-06-07T23:11:19.478Z,16.33
2019-06-07T23:13:49.157Z,16.30
2019-06-07T23:16:19.924Z,16.25
2019-06-07T23:18:49.747Z,16.23
2019-06-07T23:21:20.145Z,16.21
2019-06-07T23:23:49.913Z,16.22
2019-06-07T23:26:21.140Z,16.11
2019-06-07T23:28:51.518Z,16.09
2019-06-07T23:31:21.523Z,16.04
2019-06-07T23:33:51.446Z,16.05
2019-06-07T23:36:21.419Z,16.07
2019-06-07T23:38:51.021Z,16.07
2019-06-07T23:41:22.178Z,16.09
2019-06-07T23:43:51.973Z,16.08
2019-06-07T23:46:21.765Z,16.10
2019-06-07T23:48:51.469Z,16.07
2019-06-07T23:51:22.043Z,16.07
2019-06-07T23:53:51.786Z,16.16
2019-06-07T23:56:22.306Z,16.16
2019-06-07T23:58:52.203Z,16.15
